sensor_id;sensor_type;location;lat;lon;timestamp;P1;durP1;ratioP1;P2;durP2;ratioP2
3036;SDS011;1528;52.550;13.408;2023-07-20T00:01:13;6.80;;;6.40;;
3036;SDS011;1528;52.550;13.408;2023-07-20T00:03:59;6.77;;;6.27;;
3036;SDS011;1528;52.550;13.408;2023-07-20T00:06:45;6.77;;;6.37;;
3036;SDS011;1528;52.550;13.408;2023-07-20T00:09:31;7.30;;;6.60;;
3036;SDS011;1528;52.550;13.408;2023-07-20T00:12:18;6.97;;;6.37;;
3036;SDS011;1528;52.550;13.408;2023-07-20T00:15:03;7.50;;;6.90;;
3036;SDS011;1528;52.550;13.408;2023-07-20T00:17:50;6.80;;;6.40;;
3036;SDS011;1528;52.550;13.408;2023-07-20T00:20:35;6.90;;;6.40;;
3036;SDS011;1528;52.550;13.408;2023-07-20T00:23:21;6.30;;;5.90;;
3036;SDS011;1528;52.550;13.408;2023-07-20T00:26:06;7.57;;;6.97;;
3036;SDS011;1528;52.550;13.408;2023-07-20T00:28:53;7.00;;;6.40;;
3036;SDS011;1528;52.550;13.408;2023-07-20T00:31:39;5.73;;;5.43;;
3036;SDS011;1528;52.550;13.408;2023-07-20T00:34:24;6.17;;;5.70;;
3036;SDS011;1528;52.550;13.408;2023-07-20T00:37:10;6.43;;;5.93;;
3036;SDS011;1528;52.550;13.408;2023-07-20T00:39:56;6.50;;;6.00;;
3036;SDS011;1528;52.550;13.408;2023-07-20T00:42:41;6.20;;;5.80;;
3036;SDS011;1528;52.550;13.408;2023-07-20T00:45:28;7.03;;;6.47;;
3036;SDS011;1528;52.550;13.408;2023-07-20T00:48:14;7.00;;;6.50;;
3036;SDS011;1528;52.550;13.408;2023-07-20T00:51:00;6.40;;;5.80;;
3036;SDS011;1528;52.550;13.408;2023-07-20T00:53:47;6.90;;;6.40;;
3036;SDS011;1528;52.550;13.408;2023-07-20T00:56:32;6.47;;;6.07;;
3036;SDS011;1528;52.550;13.408;2023-07-20T00:59:18;7.43;;;6.93;;
3036;SDS011;1528;52.550;13.408;2023-07-20T01:02:05;7.50;;;6.90;;
3036;SDS011;1528;52.550;13.408;2023-07-20T01:04:50;6.43;;;6.03;;
3036;SDS011;1528;52.550;13.408;2023-07-20T01:07:36;7.10;;;6.43;;
3036;SDS011;1528;52.550;13.408;2023-07-20T01:10:29;7.00;;;6.50;;
3036;SDS011;1528;52.550;13.408;2023-07-20T01:13:21;6.53;;;6.10;;
3036;SDS011;1528;52.550;13.408;2023-07-20T01:16:08;7.20;;;6.80;;
3036;SDS011;1528;52.550;13.408;2023-07-20T01:18:55;6.83;;;6.33;;
3036;SDS011;1528;52.550;13.408;2023-07-20T01:21:42;7.70;;;7.00;;
3036;SDS011;1528;52.550;13.408;2023-07-20T01:24:51;7.30;;;6.60;;
3036;SDS011;1528;52.550;13.408;2023-07-20T01:28:00;7.50;;;7.00;;
3036;SDS011;1528;52.550;13.408;2023-07-20T01:31:20;8.30;;;7.80;;
3036;SDS011;1528;52.550;13.408;2023-07-20T01:34:08;7.40;;;6.70;;
3036;SDS011;1528;52.550;13.408;2023-07-20T01:36:56;6.63;;;6.20;;
3036;SDS011;1528;52.550;13.408;2023-07-20T01:39:44;7.47;;;6.97;;
3036;SDS011;1528;52.550;13.408;2023-07-20T01:42:29;7.30;;;6.70;;
3036;SDS011;1528;52.550;13.408;2023-07-20T01:45:15;7.90;;;7.40;;
3036;SDS011;1528;52.550;13.408;2023-07-20T01:48:03;7.90;;;7.20;;
3036;SDS011;1528;52.550;13.408;2023-07-20T01:50:49;7.97;;;7.37;;
3036;SDS011;1528;52.550;13.408;2023-07-20T01:53:34;7.73;;;7.23;;
3036;SDS011;1528;52.550;13.408;2023-07-20T01:56:20;7.90;;;7.40;;
3036;SDS011;1528;52.550;13.408;2023-07-20T01:59:06;7.83;;;7.43;;
3036;SDS011;1528;52.550;13.408;2023-07-20T02:01:52;7.50;;;6.90;;
3036;SDS011;1528;52.550;13.408;2023-07-20T02:04:39;7.53;;;6.83;;
3036;SDS011;1528;52.550;13.408;2023-07-20T02:07:27;8.03;;;7.43;;
3036;SDS011;1528;52.550;13.408;2023-07-20T02:10:12;7.50;;;7.00;;
3036;SDS011;1528;52.550;13.408;2023-07-20T02:12:58;7.87;;;7.37;;
3036;SDS011;1528;52.550;13.408;2023-07-20T02:15:43;8.97;;;8.47;;
3036;SDS011;1528;52.550;13.408;2023-07-20T02:18:30;8.70;;;8.10;;
3036;SDS011;1528;52.550;13.408;2023-07-20T02:21:18;8.30;;;7.80;;
3036;SDS011;1528;52.550;13.408;2023-07-20T02:24:04;9.00;;;8.40;;
3036;SDS011;1528;52.550;13.408;2023-07-20T02:26:50;8.10;;;7.60;;
3036;SDS011;1528;52.550;13.408;2023-07-20T02:29:36;9.53;;;8.73;;
3036;SDS011;1528;52.550;13.408;2023-07-20T02:32:22;9.17;;;8.57;;
3036;SDS011;1528;52.550;13.408;2023-07-20T02:35:07;10.43;;;9.73;;
3036;SDS011;1528;52.550;13.408;2023-07-20T02:37:54;10.60;;;9.90;;
3036;SDS011;1528;52.550;13.408;2023-07-20T02:40:40;11.77;;;10.97;;
3036;SDS011;1528;52.550;13.408;2023-07-20T02:43:25;11.23;;;10.43;;
3036;SDS011;1528;52.550;13.408;2023-07-20T02:46:11;12.83;;;11.83;;
3036;SDS011;1528;52.550;13.408;2023-07-20T02:48:57;12.50;;;11.50;;
3036;SDS011;1528;52.550;13.408;2023-07-20T02:51:42;13.87;;;12.77;;
3036;SDS011;1528;52.550;13.408;2023-07-20T02:54:29;12.57;;;11.77;;
3036;SDS011;1528;52.550;13.408;2023-07-20T02:57:15;13.17;;;12.13;;
3036;SDS011;1528;52.550;13.408;2023-07-20T03:00:01;12.93;;;11.93;;
3036;SDS011;1528;52.550;13.408;2023-07-20T03:02:47;13.10;;;12.10;;
3036;SDS011;1528;52.550;13.408;2023-07-20T03:05:36;13.47;;;12.57;;
3036;SDS011;1528;52.550;13.408;2023-07-20T03:10:57;13.20;;;12.30;;
3036;SDS011;1528;52.550;13.408;2023-07-20T03:13:43;12.50;;;11.70;;
3036;SDS011;1528;52.550;13.408;2023-07-20T03:16:29;13.43;;;12.63;;
3036;SDS011;1528;52.550;13.408;2023-07-20T03:19:16;13.10;;;12.13;;
3036;SDS011;1528;52.550;13.408;2023-07-20T03:22:02;11.10;;;10.37;;
3036;SDS011;1528;52.550;13.408;2023-07-20T03:24:48;12.30;;;11.50;;
3036;SDS011;1528;52.550;13.408;2023-07-20T03:27:35;13.83;;;12.80;;
3036;SDS011;1528;52.550;13.408;2023-07-20T03:30:21;13.17;;;12.27;;
3036;SDS011;1528;52.550;13.408;2023-07-20T03:33:07;13.33;;;12.43;;
3036;SDS011;1528;52.550;13.408;2023-07-20T03:35:52;14.33;;;13.40;;
3036;SDS011;1528;52.550;13.408;2023-07-20T03:38:38;13.77;;;12.77;;
3036;SDS011;1528;52.550;13.408;2023-07-20T03:41:23;13.23;;;12.30;;
3036;SDS011;1528;52.550;13.408;2023-07-20T03:44:10;14.53;;;13.53;;
3036;SDS011;1528;52.550;13.408;2023-07-20T03:46:56;13.03;;;12.03;;
3036;SDS011;1528;52.550;13.408;2023-07-20T03:49:42;12.70;;;11.80;;
3036;SDS011;1528;52.550;13.408;2023-07-20T03:52:27;12.60;;;11.70;;
3036;SDS011;1528;52.550;13.408;2023-07-20T03:55:13;15.00;;;14.00;;
3036;SDS011;1528;52.550;13.408;2023-07-20T03:57:58;13.23;;;12.13;;
3036;SDS011;1528;52.550;13.408;2023-07-20T04:00:46;16.10;;;14.90;;
3036;SDS011;1528;52.550;13.408;2023-07-20T04:03:32;15.23;;;14.17;;
3036;SDS011;1528;52.550;13.408;2023-07-20T04:06:18;15.23;;;14.30;;
3036;SDS011;1528;52.550;13.408;2023-07-20T04:09:03;15.57;;;14.27;;
3036;SDS011;1528;52.550;13.408;2023-07-20T04:11:49;15.73;;;14.73;;
3036;SDS011;1528;52.550;13.408;2023-07-20T04:14:35;15.47;;;14.33;;
3036;SDS011;1528;52.550;13.408;2023-07-20T04:17:22;14.97;;;13.87;;
3036;SDS011;1528;52.550;13.408;2023-07-20T04:20:07;14.63;;;13.63;;
3036;SDS011;1528;52.550;13.408;2023-07-20T04:22:53;14.67;;;13.57;;
3036;SDS011;1528;52.550;13.408;2023-07-20T04:25:39;15.33;;;13.93;;
3036;SDS011;1528;52.550;13.408;2023-07-20T04:28:25;12.80;;;12.00;;
3036;SDS011;1528;52.550;13.408;2023-07-20T04:31:11;12.77;;;11.90;;
3036;SDS011;1528;52.550;13.408;2023-07-20T04:33:58;12.90;;;12.10;;
3036;SDS011;1528;52.550;13.408;2023-07-20T04:36:44;13.40;;;12.50;;
3036;SDS011;1528;52.550;13.408;2023-07-20T04:39:30;13.30;;;12.47;;
3036;SDS011;1528;52.550;13.408;2023-07-20T04:42:15;12.73;;;11.83;;
3036;SDS011;1528;52.550;13.408;2023-07-20T04:45:01;12.20;;;11.40;;
3036;SDS011;1528;52.550;13.408;2023-07-20T04:47:47;14.10;;;13.10;;
3036;SDS011;1528;52.550;13.408;2023-07-20T04:50:35;12.37;;;11.47;;
3036;SDS011;1528;52.550;13.408;2023-07-20T04:53:20;13.13;;;12.23;;
3036;SDS011;1528;52.550;13.408;2023-07-20T04:56:06;11.93;;;11.03;;
3036;SDS011;1528;52.550;13.408;2023-07-20T04:58:52;12.73;;;11.90;;
3036;SDS011;1528;52.550;13.408;2023-07-20T05:01:38;11.33;;;10.63;;
3036;SDS011;1528;52.550;13.408;2023-07-20T05:04:23;11.30;;;10.60;;
3036;SDS011;1528;52.550;13.408;2023-07-20T05:07:10;12.80;;;11.87;;
3036;SDS011;1528;52.550;13.408;2023-07-20T05:09:56;10.40;;;9.60;;
3036;SDS011;1528;52.550;13.408;2023-07-20T05:12:41;15.67;;;14.40;;
3036;SDS011;1528;52.550;13.408;2023-07-20T05:15:27;13.67;;;12.57;;
3036;SDS011;1528;52.550;13.408;2023-07-20T05:18:12;11.20;;;10.50;;
3036;SDS011;1528;52.550;13.408;2023-07-20T05:21:03;10.63;;;9.90;;
3036;SDS011;1528;52.550;13.408;2023-07-20T05:23:51;10.30;;;9.30;;
3036;SDS011;1528;52.550;13.408;2023-07-20T05:26:37;9.37;;;8.77;;
3036;SDS011;1528;52.550;13.408;2023-07-20T05:29:22;9.33;;;8.70;;
3036;SDS011;1528;52.550;13.408;2023-07-20T05:32:08;10.90;;;9.90;;
3036;SDS011;1528;52.550;13.408;2023-07-20T05:34:54;10.80;;;10.10;;
3036;SDS011;1528;52.550;13.408;2023-07-20T05:37:40;10.47;;;9.77;;
3036;SDS011;1528;52.550;13.408;2023-07-20T05:40:27;10.27;;;9.67;;
3036;SDS011;1528;52.550;13.408;2023-07-20T05:43:13;10.93;;;10.23;;
3036;SDS011;1528;52.550;13.408;2023-07-20T05:45:58;10.97;;;10.23;;
3036;SDS011;1528;52.550;13.408;2023-07-20T05:48:44;10.83;;;9.93;;
3036;SDS011;1528;52.550;13.408;2023-07-20T05:51:30;11.17;;;10.47;;
3036;SDS011;1528;52.550;13.408;2023-07-20T05:54:15;9.63;;;8.93;;
3036;SDS011;1528;52.550;13.408;2023-07-20T05:57:02;9.70;;;8.97;;
3036;SDS011;1528;52.550;13.408;2023-07-20T05:59:49;10.40;;;9.60;;
3036;SDS011;1528;52.550;13.408;2023-07-20T06:02:35;11.00;;;10.00;;
3036;SDS011;1528;52.550;13.408;2023-07-20T06:05:21;10.93;;;9.80;;
3036;SDS011;1528;52.550;13.408;2023-07-20T06:08:07;10.33;;;9.33;;
3036;SDS011;1528;52.550;13.408;2023-07-20T06:10:52;11.50;;;10.50;;
3036;SDS011;1528;52.550;13.408;2023-07-20T06:13:39;10.17;;;9.40;;
3036;SDS011;1528;52.550;13.408;2023-07-20T06:16:27;8.13;;;7.53;;
3036;SDS011;1528;52.550;13.408;2023-07-20T06:19:12;9.00;;;8.43;;
3036;SDS011;1528;52.550;13.408;2023-07-20T06:21:58;8.63;;;7.97;;
3036;SDS011;1528;52.550;13.408;2023-07-20T06:24:44;9.17;;;8.50;;
3036;SDS011;1528;52.550;13.408;2023-07-20T06:27:29;8.63;;;7.87;;
3036;SDS011;1528;52.550;13.408;2023-07-20T06:30:16;7.40;;;6.80;;
3036;SDS011;1528;52.550;13.408;2023-07-20T06:33:03;7.67;;;7.17;;
3036;SDS011;1528;52.550;13.408;2023-07-20T06:35:48;7.23;;;6.73;;
3036;SDS011;1528;52.550;13.408;2023-07-20T06:38:33;7.73;;;7.10;;
3036;SDS011;1528;52.550;13.408;2023-07-20T06:41:19;8.20;;;7.40;;
3036;SDS011;1528;52.550;13.408;2023-07-20T06:44:05;7.03;;;6.50;;
3036;SDS011;1528;52.550;13.408;2023-07-20T06:46:53;6.70;;;6.20;;
3036;SDS011;1528;52.550;13.408;2023-07-20T06:49:38;6.57;;;6.17;;
3036;SDS011;1528;52.550;13.408;2023-07-20T06:52:24;6.60;;;5.70;;
3036;SDS011;1528;52.550;13.408;2023-07-20T06:55:10;7.23;;;6.83;;
3036;SDS011;1528;52.550;13.408;2023-07-20T06:57:55;6.43;;;5.83;;
3036;SDS011;1528;52.550;13.408;2023-07-20T07:00:41;5.50;;;5.00;;
3036;SDS011;1528;52.550;13.408;2023-07-20T07:03:28;6.17;;;5.27;;
3036;SDS011;1528;52.550;13.408;2023-07-20T07:06:14;8.87;;;6.33;;
3036;SDS011;1528;52.550;13.408;2023-07-20T07:08:59;5.60;;;5.27;;
3036;SDS011;1528;52.550;13.408;2023-07-20T07:11:45;6.23;;;5.50;;
3036;SDS011;1528;52.550;13.408;2023-07-20T07:14:31;4.90;;;4.50;;
3036;SDS011;1528;52.550;13.408;2023-07-20T07:17:16;4.33;;;4.03;;
3036;SDS011;1528;52.550;13.408;2023-07-20T07:20:04;4.90;;;4.20;;
3036;SDS011;1528;52.550;13.408;2023-07-20T07:22:51;4.00;;;3.70;;
3036;SDS011;1528;52.550;13.408;2023-07-20T07:25:36;4.07;;;3.77;;
3036;SDS011;1528;52.550;13.408;2023-07-20T07:28:22;3.57;;;3.37;;
3036;SDS011;1528;52.550;13.408;2023-07-20T07:31:08;4.57;;;4.27;;
3036;SDS011;1528;52.550;13.408;2023-07-20T07:33:54;3.80;;;3.50;;
3036;SDS011;1528;52.550;13.408;2023-07-20T07:36:41;3.90;;;3.50;;
3036;SDS011;1528;52.550;13.408;2023-07-20T07:39:27;7.20;;;3.80;;
3036;SDS011;1528;52.550;13.408;2023-07-20T07:42:13;2.97;;;2.77;;
3036;SDS011;1528;52.550;13.408;2023-07-20T07:44:59;6.93;;;6.27;;
3036;SDS011;1528;52.550;13.408;2023-07-20T07:47:45;6.10;;;3.47;;
3036;SDS011;1528;52.550;13.408;2023-07-20T07:50:30;4.00;;;3.70;;
3036;SDS011;1528;52.550;13.408;2023-07-20T07:53:18;3.07;;;2.97;;
3036;SDS011;1528;52.550;13.408;2023-07-20T07:56:06;2.73;;;2.53;;
3036;SDS011;1528;52.550;13.408;2023-07-20T07:58:52;3.23;;;3.00;;
3036;SDS011;1528;52.550;13.408;2023-07-20T08:01:38;4.33;;;2.60;;
3036;SDS011;1528;52.550;13.408;2023-07-20T08:04:23;3.10;;;2.90;;
3036;SDS011;1528;52.550;13.408;2023-07-20T08:07:09;2.70;;;2.50;;
3036;SDS011;1528;52.550;13.408;2023-07-20T08:09:56;2.50;;;2.30;;
3036;SDS011;1528;52.550;13.408;2023-07-20T08:12:42;2.73;;;2.53;;
3036;SDS011;1528;52.550;13.408;2023-07-20T08:15:27;5.60;;;2.70;;
3036;SDS011;1528;52.550;13.408;2023-07-20T08:18:13;2.70;;;2.60;;
3036;SDS011;1528;52.550;13.408;2023-07-20T08:20:59;2.47;;;2.30;;
3036;SDS011;1528;52.550;13.408;2023-07-20T08:23:44;2.43;;;2.23;;
3036;SDS011;1528;52.550;13.408;2023-07-20T08:26:31;2.23;;;2.03;;
3036;SDS011;1528;52.550;13.408;2023-07-20T08:29:17;2.80;;;2.60;;
3036;SDS011;1528;52.550;13.408;2023-07-20T08:32:03;3.20;;;2.83;;
3036;SDS011;1528;52.550;13.408;2023-07-20T08:34:49;2.57;;;2.37;;
3036;SDS011;1528;52.550;13.408;2023-07-20T08:37:34;3.47;;;2.50;;
3036;SDS011;1528;52.550;13.408;2023-07-20T08:40:20;3.00;;;2.50;;
3036;SDS011;1528;52.550;13.408;2023-07-20T08:43:07;2.50;;;2.30;;
3036;SDS011;1528;52.550;13.408;2023-07-20T08:45:54;2.53;;;2.33;;
3036;SDS011;1528;52.550;13.408;2023-07-20T08:48:40;2.40;;;2.30;;
3036;SDS011;1528;52.550;13.408;2023-07-20T08:51:26;2.60;;;2.40;;
3036;SDS011;1528;52.550;13.408;2023-07-20T08:54:13;3.33;;;2.40;;
3036;SDS011;1528;52.550;13.408;2023-07-20T08:57:00;2.20;;;2.00;;
3036;SDS011;1528;52.550;13.408;2023-07-20T08:59:48;2.67;;;2.57;;
3036;SDS011;1528;52.550;13.408;2023-07-20T09:02:38;2.70;;;2.50;;
3036;SDS011;1528;52.550;13.408;2023-07-20T09:05:25;2.20;;;2.10;;
3036;SDS011;1528;52.550;13.408;2023-07-20T09:08:10;3.10;;;2.80;;
3036;SDS011;1528;52.550;13.408;2023-07-20T09:10:56;3.63;;;2.13;;
3036;SDS011;1528;52.550;13.408;2023-07-20T09:13:41;2.23;;;2.03;;
3036;SDS011;1528;52.550;13.408;2023-07-20T09:16:28;2.10;;;1.90;;
3036;SDS011;1528;52.550;13.408;2023-07-20T09:19:14;2.00;;;1.90;;
3036;SDS011;1528;52.550;13.408;2023-07-20T09:22:00;2.07;;;1.90;;
3036;SDS011;1528;52.550;13.408;2023-07-20T09:24:45;2.10;;;1.90;;
3036;SDS011;1528;52.550;13.408;2023-07-20T09:27:34;3.30;;;2.50;;
3036;SDS011;1528;52.550;13.408;2023-07-20T09:30:21;2.70;;;2.50;;
3036;SDS011;1528;52.550;13.408;2023-07-20T09:33:19;2.10;;;2.00;;
3036;SDS011;1528;52.550;13.408;2023-07-20T09:36:06;2.17;;;2.00;;
3036;SDS011;1528;52.550;13.408;2023-07-20T09:38:55;5.80;;;2.20;;
3036;SDS011;1528;52.550;13.408;2023-07-20T09:41:41;2.17;;;2.03;;
3036;SDS011;1528;52.550;13.408;2023-07-20T09:44:27;3.63;;;3.13;;
3036;SDS011;1528;52.550;13.408;2023-07-20T09:47:13;2.73;;;2.53;;
3036;SDS011;1528;52.550;13.408;2023-07-20T09:50:08;2.03;;;1.90;;
3036;SDS011;1528;52.550;13.408;2023-07-20T09:52:55;2.40;;;2.30;;
3036;SDS011;1528;52.550;13.408;2023-07-20T09:55:41;2.70;;;2.60;;
3036;SDS011;1528;52.550;13.408;2023-07-20T09:58:28;3.50;;;3.20;;
3036;SDS011;1528;52.550;13.408;2023-07-20T10:01:17;8.90;;;7.70;;
3036;SDS011;1528;52.550;13.408;2023-07-20T10:04:07;3.50;;;3.20;;
3036;SDS011;1528;52.550;13.408;2023-07-20T10:06:56;2.33;;;2.20;;
3036;SDS011;1528;52.550;13.408;2023-07-20T10:09:45;2.53;;;2.33;;
3036;SDS011;1528;52.550;13.408;2023-07-20T10:12:33;3.33;;;2.37;;
3036;SDS011;1528;52.550;13.408;2023-07-20T10:15:20;2.57;;;2.37;;
3036;SDS011;1528;52.550;13.408;2023-07-20T10:18:09;4.10;;;3.73;;
3036;SDS011;1528;52.550;13.408;2023-07-20T10:20:58;2.43;;;2.33;;
3036;SDS011;1528;52.550;13.408;2023-07-20T10:23:47;2.10;;;1.90;;
3036;SDS011;1528;52.550;13.408;2023-07-20T10:26:33;2.37;;;2.17;;
3036;SDS011;1528;52.550;13.408;2023-07-20T10:29:18;2.27;;;2.17;;
3036;SDS011;1528;52.550;13.408;2023-07-20T10:32:05;2.13;;;2.03;;
3036;SDS011;1528;52.550;13.408;2023-07-20T10:34:52;2.70;;;2.50;;
3036;SDS011;1528;52.550;13.408;2023-07-20T10:37:47;2.13;;;2.03;;
3036;SDS011;1528;52.550;13.408;2023-07-20T10:40:37;2.33;;;2.20;;
3036;SDS011;1528;52.550;13.408;2023-07-20T10:43:24;2.73;;;2.53;;
3036;SDS011;1528;52.550;13.408;2023-07-20T10:46:10;2.43;;;2.27;;
3036;SDS011;1528;52.550;13.408;2023-07-20T10:48:59;2.27;;;2.07;;
3036;SDS011;1528;52.550;13.408;2023-07-20T10:51:47;3.50;;;2.50;;
3036;SDS011;1528;52.550;13.408;2023-07-20T10:54:34;2.50;;;2.40;;
3036;SDS011;1528;52.550;13.408;2023-07-20T10:57:33;2.07;;;1.97;;
3036;SDS011;1528;52.550;13.408;2023-07-20T11:00:19;5.60;;;5.20;;
3036;SDS011;1528;52.550;13.408;2023-07-20T11:03:07;4.80;;;2.97;;
3036;SDS011;1528;52.550;13.408;2023-07-20T11:05:53;2.90;;;2.70;;
3036;SDS011;1528;52.550;13.408;2023-07-20T11:08:39;2.73;;;2.50;;
3036;SDS011;1528;52.550;13.408;2023-07-20T11:11:26;3.40;;;3.10;;
3036;SDS011;1528;52.550;13.408;2023-07-20T11:14:21;2.70;;;2.60;;
3036;SDS011;1528;52.550;13.408;2023-07-20T11:17:11;2.57;;;2.43;;
3036;SDS011;1528;52.550;13.408;2023-07-20T11:19:58;2.10;;;2.00;;
3036;SDS011;1528;52.550;13.408;2023-07-20T11:22:45;3.07;;;2.77;;
3036;SDS011;1528;52.550;13.408;2023-07-20T11:25:35;4.57;;;2.43;;
3036;SDS011;1528;52.550;13.408;2023-07-20T11:28:22;2.30;;;2.03;;
3036;SDS011;1528;52.550;13.408;2023-07-20T11:31:09;2.57;;;2.37;;
3036;SDS011;1528;52.550;13.408;2023-07-20T11:33:54;2.87;;;2.67;;
3036;SDS011;1528;52.550;13.408;2023-07-20T11:36:40;2.77;;;2.60;;
3036;SDS011;1528;52.550;13.408;2023-07-20T11:39:26;5.73;;;2.33;;
3036;SDS011;1528;52.550;13.408;2023-07-20T11:42:13;2.43;;;1.90;;
3036;SDS011;1528;52.550;13.408;2023-07-20T11:45:00;2.20;;;1.83;;
3036;SDS011;1528;52.550;13.408;2023-07-20T11:47:50;2.20;;;2.10;;
3036;SDS011;1528;52.550;13.408;2023-07-20T11:50:38;2.20;;;2.10;;
3036;SDS011;1528;52.550;13.408;2023-07-20T11:53:24;2.17;;;2.07;;
3036;SDS011;1528;52.550;13.408;2023-07-20T11:56:11;2.03;;;1.93;;
3036;SDS011;1528;52.550;13.408;2023-07-20T11:58:57;2.10;;;2.00;;
3036;SDS011;1528;52.550;13.408;2023-07-20T12:01:45;2.30;;;2.20;;
3036;SDS011;1528;52.550;13.408;2023-07-20T12:04:32;2.37;;;2.17;;
3036;SDS011;1528;52.550;13.408;2023-07-20T12:07:18;2.00;;;1.90;;
3036;SDS011;1528;52.550;13.408;2023-07-20T12:10:05;2.23;;;2.13;;
3036;SDS011;1528;52.550;13.408;2023-07-20T12:12:51;2.57;;;2.37;;
3036;SDS011;1528;52.550;13.408;2023-07-20T12:15:37;2.23;;;2.07;;
3036;SDS011;1528;52.550;13.408;2023-07-20T12:18:22;6.07;;;2.40;;
3036;SDS011;1528;52.550;13.408;2023-07-20T12:21:10;3.93;;;2.00;;
3036;SDS011;1528;52.550;13.408;2023-07-20T12:23:56;2.73;;;2.53;;
3036;SDS011;1528;52.550;13.408;2023-07-20T12:26:43;2.33;;;2.20;;
3036;SDS011;1528;52.550;13.408;2023-07-20T12:29:28;2.10;;;2.00;;
3036;SDS011;1528;52.550;13.408;2023-07-20T12:32:15;2.43;;;2.23;;
3036;SDS011;1528;52.550;13.408;2023-07-20T12:35:01;2.50;;;2.07;;
3036;SDS011;1528;52.550;13.408;2023-07-20T12:37:48;2.50;;;2.30;;
3036;SDS011;1528;52.550;13.408;2023-07-20T12:40:35;3.20;;;3.00;;
3036;SDS011;1528;52.550;13.408;2023-07-20T12:43:20;3.20;;;2.40;;
3036;SDS011;1528;52.550;13.408;2023-07-20T12:46:06;4.13;;;2.17;;
3036;SDS011;1528;52.550;13.408;2023-07-20T12:48:52;2.80;;;1.80;;
3036;SDS011;1528;52.550;13.408;2023-07-20T12:51:37;2.07;;;1.97;;
3036;SDS011;1528;52.550;13.408;2023-07-20T12:54:24;2.03;;;1.93;;
3036;SDS011;1528;52.550;13.408;2023-07-20T12:57:09;1.93;;;1.83;;
3036;SDS011;1528;52.550;13.408;2023-07-20T12:59:55;2.50;;;1.83;;
3036;SDS011;1528;52.550;13.408;2023-07-20T13:02:41;1.80;;;1.70;;
3036;SDS011;1528;52.550;13.408;2023-07-20T13:05:27;2.33;;;2.13;;
3036;SDS011;1528;52.550;13.408;2023-07-20T13:08:12;1.90;;;1.80;;
3036;SDS011;1528;52.550;13.408;2023-07-20T13:10:59;2.00;;;1.90;;
3036;SDS011;1528;52.550;13.408;2023-07-20T13:13:45;2.00;;;1.90;;
3036;SDS011;1528;52.550;13.408;2023-07-20T13:16:31;3.43;;;1.90;;
3036;SDS011;1528;52.550;13.408;2023-07-20T13:19:17;2.13;;;1.50;;
3036;SDS011;1528;52.550;13.408;2023-07-20T13:22:03;1.80;;;1.53;;
3036;SDS011;1528;52.550;13.408;2023-07-20T13:24:49;2.53;;;2.37;;
3036;SDS011;1528;52.550;13.408;2023-07-20T13:27:36;3.70;;;3.50;;
3036;SDS011;1528;52.550;13.408;2023-07-20T13:30:21;3.23;;;3.03;;
3036;SDS011;1528;52.550;13.408;2023-07-20T13:33:07;1.93;;;1.83;;
3036;SDS011;1528;52.550;13.408;2023-07-20T13:35:53;2.27;;;2.07;;
3036;SDS011;1528;52.550;13.408;2023-07-20T13:38:38;2.20;;;2.00;;
3036;SDS011;1528;52.550;13.408;2023-07-20T13:41:24;1.80;;;1.70;;
3036;SDS011;1528;52.550;13.408;2023-07-20T13:44:11;2.00;;;1.90;;
3036;SDS011;1528;52.550;13.408;2023-07-20T13:46:56;2.10;;;2.00;;
3036;SDS011;1528;52.550;13.408;2023-07-20T13:49:43;2.07;;;1.97;;
3036;SDS011;1528;52.550;13.408;2023-07-20T13:52:28;3.40;;;2.70;;
3036;SDS011;1528;52.550;13.408;2023-07-20T13:55:14;2.90;;;2.07;;
3036;SDS011;1528;52.550;13.408;2023-07-20T13:57:59;2.10;;;2.00;;
3036;SDS011;1528;52.550;13.408;2023-07-20T14:00:47;2.10;;;2.00;;
3036;SDS011;1528;52.550;13.408;2023-07-20T14:03:32;4.57;;;1.90;;
3036;SDS011;1528;52.550;13.408;2023-07-20T14:06:17;2.17;;;1.97;;
3036;SDS011;1528;52.550;13.408;2023-07-20T14:09:03;1.90;;;1.80;;
3036;SDS011;1528;52.550;13.408;2023-07-20T14:11:49;2.10;;;1.93;;
3036;SDS011;1528;52.550;13.408;2023-07-20T14:14:34;1.77;;;1.67;;
3036;SDS011;1528;52.550;13.408;2023-07-20T14:17:21;3.00;;;2.03;;
3036;SDS011;1528;52.550;13.408;2023-07-20T14:20:07;3.43;;;2.20;;
3036;SDS011;1528;52.550;13.408;2023-07-20T14:22:54;2.77;;;2.57;;
3036;SDS011;1528;52.550;13.408;2023-07-20T14:25:40;2.00;;;1.90;;
3036;SDS011;1528;52.550;13.408;2023-07-20T14:28:25;2.53;;;1.60;;
3036;SDS011;1528;52.550;13.408;2023-07-20T14:31:11;2.00;;;1.90;;
3036;SDS011;1528;52.550;13.408;2023-07-20T14:33:59;2.27;;;2.03;;
3036;SDS011;1528;52.550;13.408;2023-07-20T14:36:44;2.07;;;1.57;;
3036;SDS011;1528;52.550;13.408;2023-07-20T14:39:29;2.07;;;1.97;;
3036;SDS011;1528;52.550;13.408;2023-07-20T14:42:15;3.00;;;2.47;;
3036;SDS011;1528;52.550;13.408;2023-07-20T14:45:01;1.90;;;1.80;;
3036;SDS011;1528;52.550;13.408;2023-07-20T14:47:47;3.17;;;2.87;;
3036;SDS011;1528;52.550;13.408;2023-07-20T14:50:38;2.30;;;2.20;;
3036;SDS011;1528;52.550;13.408;2023-07-20T14:53:24;3.40;;;2.20;;
3036;SDS011;1528;52.550;13.408;2023-07-20T14:56:12;2.23;;;2.00;;
3036;SDS011;1528;52.550;13.408;2023-07-20T14:58:57;8.60;;;2.60;;
3036;SDS011;1528;52.550;13.408;2023-07-20T15:01:44;2.30;;;2.20;;
3036;SDS011;1528;52.550;13.408;2023-07-20T15:04:30;3.67;;;2.47;;
3036;SDS011;1528;52.550;13.408;2023-07-20T15:07:17;2.83;;;2.40;;
3036;SDS011;1528;52.550;13.408;2023-07-20T15:10:04;2.00;;;1.90;;
3036;SDS011;1528;52.550;13.408;2023-07-20T15:12:50;2.30;;;2.10;;
3036;SDS011;1528;52.550;13.408;2023-07-20T15:15:35;3.40;;;2.37;;
3036;SDS011;1528;52.550;13.408;2023-07-20T15:18:21;4.33;;;2.73;;
3036;SDS011;1528;52.550;13.408;2023-07-20T15:21:07;2.40;;;2.20;;
3036;SDS011;1528;52.550;13.408;2023-07-20T15:23:54;5.90;;;2.30;;
3036;SDS011;1528;52.550;13.408;2023-07-20T15:26:39;3.40;;;2.40;;
3036;SDS011;1528;52.550;13.408;2023-07-20T15:29:25;2.63;;;2.43;;
3036;SDS011;1528;52.550;13.408;2023-07-20T15:32:10;2.80;;;2.30;;
3036;SDS011;1528;52.550;13.408;2023-07-20T15:34:56;2.20;;;2.10;;
3036;SDS011;1528;52.550;13.408;2023-07-20T15:37:41;2.37;;;2.20;;
3036;SDS011;1528;52.550;13.408;2023-07-20T15:40:28;4.93;;;2.60;;
3036;SDS011;1528;52.550;13.408;2023-07-20T15:43:14;4.50;;;2.20;;
3036;SDS011;1528;52.550;13.408;2023-07-20T15:46:01;2.50;;;2.30;;
3036;SDS011;1528;52.550;13.408;2023-07-20T15:48:52;2.83;;;2.63;;
3036;SDS011;1528;52.550;13.408;2023-07-20T15:51:37;2.50;;;2.30;;
3036;SDS011;1528;52.550;13.408;2023-07-20T15:54:25;2.70;;;2.47;;
3036;SDS011;1528;52.550;13.408;2023-07-20T15:57:12;2.40;;;2.30;;
3036;SDS011;1528;52.550;13.408;2023-07-20T15:59:57;3.27;;;2.97;;
3036;SDS011;1528;52.550;13.408;2023-07-20T16:02:43;3.70;;;3.40;;
3036;SDS011;1528;52.550;13.408;2023-07-20T16:05:29;4.50;;;4.10;;
3036;SDS011;1528;52.550;13.408;2023-07-20T16:08:16;4.10;;;3.00;;
3036;SDS011;1528;52.550;13.408;2023-07-20T16:11:02;4.33;;;2.37;;
3036;SDS011;1528;52.550;13.408;2023-07-20T16:13:49;2.97;;;2.77;;
3036;SDS011;1528;52.550;13.408;2023-07-20T16:16:36;5.00;;;2.67;;
3036;SDS011;1528;52.550;13.408;2023-07-20T16:19:21;3.40;;;2.53;;
3036;SDS011;1528;52.550;13.408;2023-07-20T16:22:07;2.73;;;2.53;;
3036;SDS011;1528;52.550;13.408;2023-07-20T16:24:55;3.73;;;2.53;;
3036;SDS011;1528;52.550;13.408;2023-07-20T16:27:41;2.30;;;2.10;;
3036;SDS011;1528;52.550;13.408;2023-07-20T16:30:28;2.93;;;2.40;;
3036;SDS011;1528;52.550;13.408;2023-07-20T16:33:14;4.23;;;2.83;;
3036;SDS011;1528;52.550;13.408;2023-07-20T16:36:01;3.80;;;2.33;;
3036;SDS011;1528;52.550;13.408;2023-07-20T16:38:46;2.53;;;2.43;;
3036;SDS011;1528;52.550;13.408;2023-07-20T16:41:32;2.60;;;2.40;;
3036;SDS011;1528;52.550;13.408;2023-07-20T16:44:18;6.03;;;3.20;;
3036;SDS011;1528;52.550;13.408;2023-07-20T16:47:05;4.63;;;4.23;;
3036;SDS011;1528;52.550;13.408;2023-07-20T16:49:52;3.57;;;2.60;;
3036;SDS011;1528;52.550;13.408;2023-07-20T16:52:38;14.63;;;4.10;;
3036;SDS011;1528;52.550;13.408;2023-07-20T16:55:23;3.57;;;2.60;;